createdAt,value
2022-11-19T00:02:02.495Z,96547.00
2022-11-19T00:04:30.695Z,96551.00
2022-11-19T00:06:58.926Z,96549.00
2022-11-19T00:09:27.636Z,96554.00
2022-11-19T00:12:13.438Z,96539.00
2022-11-19T00:14:42.970Z,96550.00
2022-11-19T00:17:11.158Z,96548.00
2022-11-19T00:19:39.240Z,96536.00
2022-11-19T00:22:07.482Z,96545.00
2022-11-19T00:24:35.661Z,96540.00
2022-11-19T00:27:04.241Z,96537.00
2022-11-19T00:29:32.826Z,96540.00
2022-11-19T00:32:02.346Z,96552.00
2022-11-19T00:34:30.501Z,96559.00
2022-11-19T00:36:58.625Z,96535.00
2022-11-19T00:39:26.773Z,96543.00
2022-11-19T00:41:55.058Z,96551.00
2022-11-19T00:44:23.192Z,96548.00
2022-11-19T00:46:51.325Z,96543.00
2022-11-19T00:49:20.942Z,96555.00
2022-11-19T00:51:49.385Z,96553.00
2022-11-19T00:54:17.842Z,96557.00
2022-11-19T00:56:46.087Z,96567.00
2022-11-19T00:59:14.452Z,96553.00
2022-11-19T01:01:42.819Z,96559.00
2022-11-19T01:04:11.103Z,96560.00
2022-11-19T01:06:40.700Z,96561.00
2022-11-19T01:09:08.920Z,96560.00
2022-11-19T01:11:39.070Z,96562.00
2022-11-19T01:14:08.450Z,96570.00
2022-11-19T01:16:39.609Z,96573.00
2022-11-19T01:19:11.529Z,96562.00
2022-11-19T01:21:40.997Z,96580.00
2022-11-19T01:24:09.676Z,96584.00
2022-11-19T01:26:40.570Z,96580.00
2022-11-19T01:29:12.488Z,96588.00
2022-11-19T01:31:40.626Z,96592.00
2022-11-19T01:34:08.692Z,96602.00
2022-11-19T01:36:37.496Z,96602.00
2022-11-19T01:39:07.016Z,96603.00
2022-11-19T01:41:35.548Z,96603.00
2022-11-19T01:44:05.879Z,96601.00
2022-11-19T01:46:40.699Z,96600.00
2022-11-19T01:49:15.458Z,96597.00
2022-11-19T01:51:49.908Z,96618.00
2022-11-19T01:54:25.460Z,96608.00
2022-11-19T01:56:54.518Z,96617.00
2022-11-19T01:59:23.766Z,96618.00
2022-11-19T02:01:52.355Z,96623.00
2022-11-19T02:04:22.527Z,96621.00
2022-11-19T02:06:51.167Z,96629.00
2022-11-19T02:09:21.475Z,96624.00
2022-11-19T02:12:14.366Z,96622.00
2022-11-19T02:15:24.005Z,96630.00
2022-11-19T02:18:17.982Z,96625.00
2022-11-19T02:20:56.465Z,96632.00
2022-11-19T02:24:12.548Z,96634.00
2022-11-19T02:27:28.962Z,96634.00
2022-11-19T02:30:17.650Z,96633.00
2022-11-19T02:32:59.704Z,96639.00
2022-11-19T02:35:45.180Z,96631.00
2022-11-19T02:38:26.620Z,96631.00
2022-11-19T02:41:00.397Z,96637.00
2022-11-19T02:43:36.012Z,96645.00
2022-11-19T02:46:13.264Z,96635.00
2022-11-19T02:48:46.347Z,96637.00
2022-11-19T02:51:17.610Z,96643.00
2022-11-19T02:53:48.810Z,96641.00
2022-11-19T02:56:49.157Z,96650.00
2022-11-19T02:59:39.456Z,96661.00
2022-11-19T03:02:28.965Z,96649.00
2022-11-19T03:04:58.524Z,96663.00
2022-11-19T03:07:26.731Z,96658.00
2022-11-19T03:09:58.602Z,96651.00
2022-11-19T03:12:41.722Z,96642.00
2022-11-19T03:15:40.911Z,96652.00
2022-11-19T03:18:18.109Z,96644.00
2022-11-19T03:20:54.215Z,96652.00
2022-11-19T03:23:30.469Z,96653.00
2022-11-19T03:26:07.615Z,96644.00
2022-11-19T03:28:39.554Z,96650.00
2022-11-19T03:31:09.420Z,96656.00
2022-11-19T03:33:45.460Z,96654.00
2022-11-19T03:36:22.457Z,96651.00
2022-11-19T03:38:56.161Z,96661.00
2022-11-19T03:41:28.255Z,96672.00
2022-11-19T03:44:02.928Z,96685.00
2022-11-19T03:46:35.651Z,96693.00
2022-11-19T03:49:09.821Z,96690.00
2022-11-19T03:51:44.699Z,96687.00
2022-11-19T03:54:13.004Z,96692.00
2022-11-19T03:56:44.046Z,96701.00
2022-11-19T03:59:13.755Z,96690.00
2022-11-19T04:01:45.120Z,96701.00
2022-11-19T04:04:32.764Z,96683.00
2022-11-19T04:07:01.091Z,96680.00
2022-11-19T04:09:29.190Z,96689.00
2022-11-19T04:11:57.296Z,96699.00
2022-11-19T04:14:25.719Z,96697.00
2022-11-19T04:16:54.077Z,96696.00
2022-11-19T04:19:23.835Z,96692.00
2022-11-19T04:21:54.216Z,96681.00
2022-11-19T04:24:22.412Z,96701.00
2022-11-19T04:26:50.706Z,96696.00
2022-11-19T04:29:19.240Z,96700.00
2022-11-19T04:31:47.693Z,96697.00
2022-11-19T04:34:15.828Z,96702.00
2022-11-19T04:36:45.734Z,96713.00
2022-11-19T04:39:14.146Z,96718.00
2022-11-19T04:41:43.402Z,96712.00
2022-11-19T04:44:11.558Z,96721.00
2022-11-19T04:46:39.675Z,96716.00
2022-11-19T04:49:07.838Z,96712.00
2022-11-19T04:51:35.971Z,96709.00
2022-11-19T04:54:08.499Z,96719.00
2022-11-19T04:56:36.939Z,96706.00
2022-11-19T04:59:05.594Z,96715.00
2022-11-19T05:01:33.806Z,96728.00
2022-11-19T05:04:02.016Z,96720.00
2022-11-19T05:06:30.108Z,96716.00
2022-11-19T05:08:58.262Z,96717.00
2022-11-19T05:11:27.798Z,96714.00
2022-11-19T05:13:55.911Z,96710.00
2022-11-19T05:16:24.134Z,96717.00
2022-11-19T05:18:52.267Z,96707.00
2022-11-19T05:21:20.404Z,96717.00
2022-11-19T05:23:48.556Z,96712.00
2022-11-19T05:26:16.679Z,96718.00
2022-11-19T05:28:46.180Z,96724.00
2022-11-19T05:31:14.388Z,96718.00
2022-11-19T05:33:42.516Z,96721.00
2022-11-19T05:36:11.062Z,96733.00
2022-11-19T05:38:41.066Z,96721.00
2022-11-19T05:41:09.220Z,96727.00
2022-11-19T05:43:37.325Z,96712.00
2022-11-19T05:46:07.066Z,96716.00
2022-11-19T05:48:35.183Z,96727.00
2022-11-19T05:51:03.315Z,96723.00
2022-11-19T05:53:31.519Z,96714.00
2022-11-19T05:55:59.655Z,96708.00
2022-11-19T05:58:27.757Z,96711.00
2022-11-19T06:00:56.920Z,96711.00
2022-11-19T06:03:26.826Z,96712.00
2022-11-19T06:05:55.056Z,96722.00
2022-11-19T06:08:23.253Z,96721.00
2022-11-19T06:10:51.411Z,96729.00
2022-11-19T06:13:19.898Z,96725.00
2022-11-19T06:15:48.044Z,96727.00
2022-11-19T06:18:16.173Z,96723.00
2022-11-19T06:20:45.667Z,96725.00
2022-11-19T06:23:14.332Z,96726.00
2022-11-19T06:25:42.418Z,96718.00
2022-11-19T06:28:13.468Z,96736.00
2022-11-19T06:30:41.604Z,96724.00
2022-11-19T06:33:09.778Z,96739.00
2022-11-19T06:35:38.391Z,96732.00
2022-11-19T06:38:08.131Z,96736.00
2022-11-19T06:40:36.255Z,96732.00
2022-11-19T06:43:05.077Z,96740.00
2022-11-19T06:45:33.206Z,96742.00
2022-11-19T06:48:01.321Z,96746.00
2022-11-19T06:50:29.691Z,96759.00
2022-11-19T06:52:57.879Z,96754.00
2022-11-19T06:55:27.518Z,96756.00
2022-11-19T06:57:57.555Z,96748.00
2022-11-19T07:00:25.655Z,96749.00
2022-11-19T07:02:53.767Z,96745.00
2022-11-19T07:05:22.096Z,96761.00
2022-11-19T07:07:50.287Z,96767.00
2022-11-19T07:10:18.986Z,96778.00
2022-11-19T07:12:48.498Z,96782.00
2022-11-19T07:15:16.780Z,96779.00
2022-11-19T07:17:44.950Z,96784.00
2022-11-19T07:20:13.797Z,96786.00
2022-11-19T07:22:42.745Z,96803.00
2022-11-19T07:25:12.873Z,96794.00
2022-11-19T07:27:41.396Z,96792.00
2022-11-19T07:30:12.226Z,96799.00
2022-11-19T07:32:40.565Z,96807.00
2022-11-19T07:35:10.234Z,96800.00
2022-11-19T07:37:39.144Z,96798.00
2022-11-19T07:40:10.876Z,96802.00
2022-11-19T07:42:50.057Z,96814.00
2022-11-19T07:45:22.008Z,96829.00
2022-11-19T07:47:50.353Z,96820.00
2022-11-19T07:50:19.580Z,96814.00
2022-11-19T07:52:47.755Z,96814.00
2022-11-19T07:55:16.079Z,96818.00
2022-11-19T07:57:44.205Z,96809.00
2022-11-19T08:00:14.301Z,96819.00
2022-11-19T08:02:44.209Z,96808.00
2022-11-19T08:05:12.823Z,96811.00
2022-11-19T08:07:41.321Z,96821.00
2022-11-19T08:10:11.826Z,96828.00
2022-11-19T08:12:40.319Z,96815.00
2022-11-19T08:15:10.369Z,96804.00
2022-11-19T08:17:56.157Z,96798.00
2022-11-19T08:20:25.628Z,96812.00
2022-11-19T08:22:53.762Z,96817.00
2022-11-19T08:25:21.998Z,96817.00
2022-11-19T08:27:50.156Z,96819.00
2022-11-19T08:30:18.407Z,96825.00
2022-11-19T08:32:46.511Z,96824.00
2022-11-19T08:35:14.675Z,96817.00
2022-11-19T08:37:44.152Z,96826.00
2022-11-19T08:40:12.974Z,96831.00
2022-11-19T08:42:59.084Z,96825.00
2022-11-19T08:45:29.548Z,96836.00
2022-11-19T08:47:59.285Z,96845.00
2022-11-19T08:50:28.898Z,96843.00
2022-11-19T08:53:00.876Z,96839.00
2022-11-19T08:55:30.958Z,96847.00
2022-11-19T08:58:03.235Z,96847.00
2022-11-19T09:00:32.651Z,96852.00
2022-11-19T09:03:00.994Z,96858.00
2022-11-19T09:05:31.799Z,96852.00
2022-11-19T09:08:01.477Z,96859.00
2022-11-19T09:10:29.714Z,96856.00
2022-11-19T09:12:57.865Z,96871.00
2022-11-19T09:15:25.989Z,96871.00
2022-11-19T09:17:54.388Z,96869.00
2022-11-19T09:20:22.503Z,96872.00
2022-11-19T09:22:50.642Z,96870.00
2022-11-19T09:25:20.232Z,96864.00
2022-11-19T09:27:48.340Z,96873.00
2022-11-19T09:30:16.844Z,96882.00
2022-11-19T09:32:45.142Z,96877.00
2022-11-19T09:35:13.809Z,96880.00
2022-11-19T09:37:41.937Z,96888.00
2022-11-19T09:40:20.539Z,96891.00
2022-11-19T09:43:05.073Z,96884.00
2022-11-19T09:45:53.778Z,96885.00
2022-11-19T09:48:34.509Z,96887.00
2022-11-19T09:51:09.291Z,96888.00
2022-11-19T09:53:46.375Z,96886.00
2022-11-19T09:56:26.327Z,96878.00
2022-11-19T09:58:56.631Z,96885.00
2022-11-19T10:01:25.638Z,96879.00
2022-11-19T10:03:58.324Z,96870.00
2022-11-19T10:06:37.445Z,96879.00
2022-11-19T10:09:35.700Z,96877.00
2022-11-19T10:12:23.928Z,96876.00
2022-11-19T10:15:15.948Z,96874.00
2022-11-19T10:17:58.952Z,96874.00
2022-11-19T10:20:54.691Z,96877.00
2022-11-19T10:23:35.053Z,96877.00
2022-11-19T10:26:10.929Z,96879.00
2022-11-19T10:28:49.667Z,96864.00
2022-11-19T10:31:25.789Z,96871.00
2022-11-19T10:34:00.223Z,96875.00
2022-11-19T10:36:35.465Z,96881.00
2022-11-19T10:39:12.290Z,96878.00
2022-11-19T10:41:50.483Z,96853.00
2022-11-19T10:44:38.085Z,96857.00
2022-11-19T10:47:10.146Z,96857.00
2022-11-19T10:49:43.384Z,96857.00
2022-11-19T10:52:29.366Z,96857.00
2022-11-19T10:55:04.015Z,96851.00
2022-11-19T10:57:35.108Z,96864.00
2022-11-19T11:00:06.371Z,96870.00
2022-11-19T11:02:45.749Z,96868.00
2022-11-19T11:05:17.307Z,96860.00
2022-11-19T11:07:55.449Z,96862.00
2022-11-19T11:10:42.608Z,96863.00
2022-11-19T11:13:46.233Z,96858.00
2022-11-19T11:16:21.125Z,96851.00
2022-11-19T11:18:51.062Z,96846.00
2022-11-19T11:21:36.455Z,96858.00
2022-11-19T11:24:08.057Z,96848.00
2022-11-19T11:26:37.829Z,96852.00
2022-11-19T11:29:23.711Z,96866.00
2022-11-19T11:31:53.797Z,96868.00
2022-11-19T11:34:34.574Z,96852.00
2022-11-19T11:37:06.185Z,96860.00
2022-11-19T11:39:39.169Z,96850.00
2022-11-19T11:42:17.653Z,96844.00
2022-11-19T11:44:53.132Z,96851.00
2022-11-19T11:47:28.493Z,96839.00
2022-11-19T11:50:07.710Z,96847.00
2022-11-19T11:52:42.495Z,96839.00
2022-11-19T11:55:17.457Z,96836.00
2022-11-19T11:57:54.526Z,96838.00
2022-11-19T12:00:38.934Z,96831.00
2022-11-19T12:03:11.330Z,96846.00
2022-11-19T12:05:55.379Z,96843.00
2022-11-19T12:08:49.909Z,96835.00
2022-11-19T12:11:27.587Z,96850.00
2022-11-19T12:14:04.316Z,96856.00
2022-11-19T12:16:53.740Z,96863.00
2022-11-19T12:20:10.274Z,96882.00
2022-11-19T12:22:52.314Z,96850.00
2022-11-19T12:25:31.124Z,96853.00
2022-11-19T12:28:37.968Z,96845.00
2022-11-19T12:31:20.221Z,96835.00
2022-11-19T12:34:23.220Z,96803.00
2022-11-19T12:37:07.573Z,96815.00
2022-11-19T12:39:46.841Z,96827.00
2022-11-19T12:42:41.662Z,96823.00
2022-11-19T12:45:23.856Z,96824.00
2022-11-19T12:48:22.902Z,96826.00
2022-11-19T12:50:59.451Z,96826.00
2022-11-19T12:53:49.553Z,96827.00
2022-11-19T12:56:36.732Z,96830.00
2022-11-19T12:59:23.407Z,96829.00
2022-11-19T13:01:58.704Z,96836.00
2022-11-19T13:04:38.097Z,96832.00
2022-11-19T13:07:14.354Z,96833.00
2022-11-19T13:09:51.773Z,96834.00
2022-11-19T13:12:26.770Z,96824.00
2022-11-19T13:15:01.891Z,96833.00
2022-11-19T13:17:36.002Z,96828.00
2022-11-19T13:20:12.832Z,96829.00
2022-11-19T13:22:47.376Z,96817.00
2022-11-19T13:25:25.202Z,96815.00
2022-11-19T13:27:57.952Z,96835.00
2022-11-19T13:30:28.405Z,96830.00
2022-11-19T13:33:12.172Z,96826.00
2022-11-19T13:35:49.504Z,96832.00
2022-11-19T13:38:29.211Z,96835.00
2022-11-19T13:41:11.840Z,96856.00
2022-11-19T13:43:58.371Z,96841.00
2022-11-19T13:46:34.015Z,96831.00
2022-11-19T13:49:07.759Z,96850.00
2022-11-19T13:51:41.624Z,96841.00
2022-11-19T13:54:22.496Z,96839.00
2022-11-19T13:56:56.975Z,96838.00
2022-11-19T13:59:34.414Z,96845.00
2022-11-19T14:02:42.806Z,96856.00
2022-11-19T14:06:00.955Z,96841.00
2022-11-19T14:08:57.299Z,96842.00
2022-11-19T14:12:15.287Z,96843.00
2022-11-19T14:15:29.282Z,96847.00
2022-11-19T14:18:25.276Z,96847.00
2022-11-19T14:21:11.182Z,96851.00
2022-11-19T14:24:03.117Z,96833.00
2022-11-19T14:27:16.785Z,96842.00
2022-11-19T14:30:01.095Z,96834.00
2022-11-19T14:32:45.352Z,96851.00
2022-11-19T14:35:47.680Z,96850.00
2022-11-19T14:38:38.931Z,96843.00
2022-11-19T14:41:30.731Z,96860.00
2022-11-19T14:44:14.361Z,96847.00
2022-11-19T14:46:47.807Z,96838.00
2022-11-19T14:49:35.372Z,96838.00
2022-11-19T14:52:05.132Z,96849.00
2022-11-19T14:54:40.546Z,96851.00
2022-11-19T14:57:29.499Z,96858.00
2022-11-19T15:00:03.784Z,96848.00
2022-11-19T15:02:38.020Z,96853.00
2022-11-19T15:05:17.935Z,96846.00
2022-11-19T15:07:54.477Z,96845.00
2022-11-19T15:10:49.779Z,96853.00
2022-11-19T15:13:27.578Z,96849.00
2022-11-19T15:16:13.662Z,96844.00
2022-11-19T15:19:32.754Z,96849.00
2022-11-19T15:22:26.341Z,96848.00
2022-11-19T15:25:25.840Z,96853.00
2022-11-19T15:28:06.325Z,96847.00
2022-11-19T15:30:57.158Z,96853.00
2022-11-19T15:33:58.280Z,96855.00
2022-11-19T15:36:35.642Z,96860.00
2022-11-19T15:39:15.189Z,96852.00
2022-11-19T15:42:01.195Z,96854.00
2022-11-19T15:44:42.133Z,96860.00
2022-11-19T15:47:18.785Z,96862.00
2022-11-19T15:49:49.652Z,96860.00
2022-11-19T15:52:27.259Z,96864.00
2022-11-19T15:55:12.772Z,96865.00
2022-11-19T15:57:45.174Z,96861.00
2022-11-19T16:00:20.035Z,96866.00
2022-11-19T16:02:50.900Z,96869.00
2022-11-19T16:05:25.177Z,96869.00
2022-11-19T16:07:54.411Z,96863.00
2022-11-19T16:10:29.887Z,96856.00
2022-11-19T16:13:18.159Z,96873.00
2022-11-19T16:16:09.056Z,96872.00
2022-11-19T16:18:47.964Z,96867.00
2022-11-19T16:21:24.611Z,96870.00
2022-11-19T16:24:11.295Z,96871.00
2022-11-19T16:26:43.424Z,96862.00
2022-11-19T16:29:18.630Z,96870.00
2022-11-19T16:31:49.598Z,96870.00
2022-11-19T16:34:24.404Z,96875.00
2022-11-19T16:36:55.516Z,96878.00
2022-11-19T16:39:27.268Z,96882.00
2022-11-19T16:42:16.113Z,96896.00
2022-11-19T16:44:47.112Z,96900.00
2022-11-19T16:47:25.330Z,96909.00
2022-11-19T16:50:03.335Z,96910.00
2022-11-19T16:52:42.101Z,96908.00
2022-11-19T16:55:52.111Z,96921.00
2022-11-19T16:58:28.583Z,96907.00
2022-11-19T17:00:59.613Z,96919.00
2022-11-19T17:03:36.327Z,96936.00
2022-11-19T17:06:07.460Z,96923.00
2022-11-19T17:08:39.283Z,96928.00
2022-11-19T17:11:38.177Z,96918.00
2022-11-19T17:14:24.440Z,96910.00
2022-11-19T17:16:54.895Z,96901.00
2022-11-19T17:19:28.848Z,96903.00
2022-11-19T17:22:02.341Z,96887.00
2022-11-19T17:24:38.620Z,96897.00
2022-11-19T17:27:07.314Z,96903.00
2022-11-19T17:29:35.521Z,96905.00
2022-11-19T17:32:05.545Z,96911.00
2022-11-19T17:34:46.189Z,96918.00
2022-11-19T17:37:14.363Z,96912.00
2022-11-19T17:39:43.848Z,96923.00
2022-11-19T17:42:29.544Z,96905.00
2022-11-19T17:44:57.713Z,96918.00
2022-11-19T17:47:25.880Z,96914.00
2022-11-19T17:49:54.381Z,96922.00
2022-11-19T17:52:25.461Z,96931.00
2022-11-19T17:54:58.461Z,96926.00
2022-11-19T17:57:26.712Z,96931.00
2022-11-19T17:59:54.934Z,96939.00
2022-11-19T18:02:23.341Z,96928.00
2022-11-19T18:04:52.900Z,96929.00
2022-11-19T18:07:21.110Z,96938.00
2022-11-19T18:09:49.333Z,96924.00
2022-11-19T18:12:20.843Z,96937.00
2022-11-19T18:14:49.231Z,96923.00
2022-11-19T18:17:19.548Z,96937.00
2022-11-19T18:19:48.105Z,96939.00
2022-11-19T18:22:20.391Z,96941.00
2022-11-19T18:24:49.786Z,96944.00
2022-11-19T18:27:19.745Z,96947.00
2022-11-19T18:29:47.965Z,96938.00
2022-11-19T18:32:16.905Z,96944.00
2022-11-19T18:34:46.355Z,96936.00
2022-11-19T18:37:14.691Z,96946.00
2022-11-19T18:39:42.885Z,96950.00
2022-11-19T18:42:12.753Z,96937.00
2022-11-19T18:44:43.480Z,96942.00
2022-11-19T18:47:14.546Z,96926.00
2022-11-19T18:49:43.389Z,96951.00
2022-11-19T18:52:15.561Z,96937.00
2022-11-19T18:54:44.982Z,96932.00
2022-11-19T18:57:14.385Z,96949.00
2022-11-19T18:59:46.139Z,96934.00
2022-11-19T19:02:14.471Z,96948.00
2022-11-19T19:04:42.959Z,96943.00
2022-11-19T19:07:13.177Z,96957.00
2022-11-19T19:09:41.395Z,96960.00
2022-11-19T19:12:19.510Z,96957.00
2022-11-19T19:14:51.866Z,96953.00
2022-11-19T19:17:20.436Z,96936.00
2022-11-19T19:19:49.730Z,96942.00
2022-11-19T19:22:18.299Z,96957.00
2022-11-19T19:24:46.986Z,96962.00
2022-11-19T19:27:15.945Z,96956.00
2022-11-19T19:29:44.214Z,96954.00
2022-11-19T19:32:13.915Z,96954.00
2022-11-19T19:34:42.073Z,96957.00
2022-11-19T19:37:10.263Z,96956.00
2022-11-19T19:39:38.433Z,96949.00
2022-11-19T19:42:06.826Z,96964.00
2022-11-19T19:44:35.065Z,96952.00
2022-11-19T19:47:03.712Z,96952.00
2022-11-19T19:49:38.437Z,96945.00
2022-11-19T19:52:07.193Z,96950.00
2022-11-19T19:54:35.446Z,96955.00
2022-11-19T19:57:03.705Z,96966.00
2022-11-19T19:59:31.904Z,96969.00
2022-11-19T20:02:00.375Z,96964.00
2022-11-19T20:04:28.639Z,96966.00
2022-11-19T20:06:58.297Z,96971.00
2022-11-19T20:09:27.658Z,96966.00
2022-11-19T20:11:59.573Z,96990.00
2022-11-19T20:14:27.939Z,96976.00
2022-11-19T20:16:56.099Z,96998.00
2022-11-19T20:19:24.830Z,97005.00
2022-11-19T20:21:54.432Z,96990.00
2022-11-19T20:24:24.080Z,96993.00
2022-11-19T20:26:52.369Z,96988.00
2022-11-19T20:29:22.103Z,96988.00
2022-11-19T20:31:51.739Z,96990.00
2022-11-19T20:34:20.424Z,96982.00
2022-11-19T20:36:48.977Z,96988.00
2022-11-19T20:39:17.309Z,96972.00
2022-11-19T20:42:04.800Z,96965.00
2022-11-19T20:44:33.065Z,96977.00
2022-11-19T20:47:04.263Z,96982.00
2022-11-19T20:49:35.904Z,96981.00
2022-11-19T20:52:05.260Z,96975.00
2022-11-19T20:54:34.620Z,96983.00
2022-11-19T20:57:04.717Z,96979.00
2022-11-19T20:59:33.091Z,96992.00
2022-11-19T21:02:01.481Z,96988.00
2022-11-19T21:04:36.188Z,96992.00
2022-11-19T21:07:05.266Z,96984.00
2022-11-19T21:09:33.738Z,96979.00
2022-11-19T21:12:03.442Z,96975.00
2022-11-19T21:14:31.976Z,96975.00
2022-11-19T21:17:00.610Z,96966.00
2022-11-19T21:19:28.973Z,96960.00
2022-11-19T21:21:58.158Z,96967.00
2022-11-19T21:24:26.637Z,96969.00
2022-11-19T21:26:54.919Z,96962.00
2022-11-19T21:29:24.648Z,96962.00
2022-11-19T21:31:53.023Z,96956.00
2022-11-19T21:34:21.700Z,96953.00
2022-11-19T21:36:51.238Z,96953.00
2022-11-19T21:39:21.045Z,96960.00
2022-11-19T21:41:50.303Z,96968.00
2022-11-19T21:44:21.851Z,96947.00
2022-11-19T21:46:51.787Z,96964.00
2022-11-19T21:49:20.342Z,96971.00
2022-11-19T21:51:49.092Z,96958.00
2022-11-19T21:54:17.456Z,96952.00
2022-11-19T21:56:45.766Z,96959.00
2022-11-19T21:59:14.043Z,96955.00
2022-11-19T22:01:42.390Z,96953.00
2022-11-19T22:04:13.693Z,96961.00
2022-11-19T22:06:42.227Z,96954.00
2022-11-19T22:09:10.603Z,96951.00
2022-11-19T22:11:38.911Z,96956.00
2022-11-19T22:14:09.675Z,96955.00
2022-11-19T22:16:40.958Z,96954.00
2022-11-19T22:19:13.871Z,96942.00
2022-11-19T22:21:42.154Z,96950.00
2022-11-19T22:24:12.831Z,96962.00
2022-11-19T22:26:41.124Z,96966.00
2022-11-19T22:29:09.735Z,96966.00
2022-11-19T22:31:38.040Z,96952.00
2022-11-19T22:34:06.293Z,96963.00
2022-11-19T22:36:35.948Z,96963.00
2022-11-19T22:39:04.281Z,96971.00
2022-11-19T22:41:32.969Z,96960.00
2022-11-19T22:44:01.251Z,96958.00
2022-11-19T22:46:29.545Z,96945.00
2022-11-19T22:48:58.020Z,96960.00
2022-11-19T22:51:27.493Z,96941.00
2022-11-19T22:53:57.473Z,96958.00
2022-11-19T22:56:28.633Z,96940.00
2022-11-19T22:58:57.991Z,96951.00
2022-11-19T23:01:28.755Z,96953.00
2022-11-19T23:03:59.685Z,96964.00
2022-11-19T23:06:28.301Z,96957.00
2022-11-19T23:08:58.013Z,96966.00
2022-11-19T23:11:44.375Z,96958.00
2022-11-19T23:14:15.638Z,96952.00
2022-11-19T23:16:45.001Z,96945.00
2022-11-19T23:19:15.137Z,96946.00
2022-11-19T23:21:43.454Z,96940.00
2022-11-19T23:24:13.271Z,96939.00
2022-11-19T23:26:41.650Z,96940.00
2022-11-19T23:29:10.250Z,96940.00
2022-11-19T23:31:40.494Z,96958.00
2022-11-19T23:34:09.193Z,96962.00
2022-11-19T23:36:40.513Z,96962.00
2022-11-19T23:39:15.011Z,96965.00
2022-11-19T23:41:43.691Z,96969.00
2022-11-19T23:44:11.958Z,96970.00
2022-11-19T23:46:40.231Z,96967.00
2022-11-19T23:49:08.521Z,96952.00
2022-11-19T23:51:40.161Z,96946.00
2022-11-19T23:54:08.473Z,96948.00
2022-11-19T23:56:38.140Z,96952.00
2022-11-19T23:59:07.595Z,96964.00
